Aviation Digital Data Service (ADDS)

Output produced by METARs form (0044 UTC 21 July 2017)
found at http://aviationweather.gov/adds/metars/
 
KHYA 202321Z 2100/2124 22010KT P6SM SCT200 
     FM210300 24007KT P6SM FEW003 
     FM211000 26004KT P6SM SCT250 
     FM211400 27010KT P6SM FEW250 
     FM211900 23009KT P6SM FEW250